首页
METAR-TAF:

METAR-TAF

机场 :

格尔夫波特, 密西西比州, 美国

纬度: 30-24-43N, 经度: 089-04-51W, 海拔: 8米

当前天气观测

该预报发布于38分钟前的04:53 UTC
风速6节,风向东北
温度 17°C
湿度 88%
气压 1017 hPa
能見度: 16.1公里
多云层高于800英尺
阴天层高于1200英尺

METAR: KGPT 230453Z AUTO 05006KT 10SM BKN008 OVC012 17/15 A3003 RMK AO2 CIG 005V009 SLP166 T01670150

时间: 23:31 (05:31 UTC)

预报

该预报发布于5小时和48分钟前的23:43 UTC
预报有效从23日的 00点(UTC)到 23日的 24点(UTC)
风速4节,风向多变
能見度: 10公里
多云层高于1500英尺
附近有阵雨
从 23日的 1300点(UTC)
风速6节,风向东北
能見度: 8.0公里
多云层高于300英尺
轻雾
从 23日的 1700点(UTC)
风速8节,风向东转东北
能見度: 9.7公里
多云层高于1000英尺
轻雾

TAF: KGPT 222343Z 2300/2324 VRB04KT P6SM VCSH BKN015 FM231300 05006KT 5SM BR BKN003 FM231700 07008KT 6SM BR BKN010

超过4000个机场的气象观测和天气预报(METAR&TAF报告)。

可查询的气象台以黄色和红色小点在地图上表示。

将鼠标移到小点上方,可查看气象台名称。

然后点击查看天气观测和预报。

如需切换地图:点击带黑十字的绿色按钮放大地图;点击带横线的绿色按钮缩小地图;或者点击绿色箭头查看邻近地区的地图。


METAR-TAF: